sensor_id;sensor_type;location;lat;lon;timestamp;temperature;humidity
13440;DHT22;6792;57.698;11.946;2023-07-08T00:02:19;23.60;49.20
13440;DHT22;6792;57.698;11.946;2023-07-08T00:04:49;23.50;49.20
13440;DHT22;6792;57.698;11.946;2023-07-08T00:07:20;23.50;49.30
13440;DHT22;6792;57.698;11.946;2023-07-08T00:09:50;23.50;49.50
13440;DHT22;6792;57.698;11.946;2023-07-08T00:12:19;23.40;49.50
13440;DHT22;6792;57.698;11.946;2023-07-08T00:14:48;23.30;49.00
13440;DHT22;6792;57.698;11.946;2023-07-08T00:17:18;23.40;50.30
13440;DHT22;6792;57.698;11.946;2023-07-08T00:19:47;23.30;49.60
13440;DHT22;6792;57.698;11.946;2023-07-08T00:22:16;23.30;49.80
13440;DHT22;6792;57.698;11.946;2023-07-08T00:24:45;23.30;49.90
13440;DHT22;6792;57.698;11.946;2023-07-08T00:27:15;23.20;49.90
13440;DHT22;6792;57.698;11.946;2023-07-08T00:29:44;23.20;50.00
13440;DHT22;6792;57.698;11.946;2023-07-08T00:32:15;23.20;49.50
13440;DHT22;6792;57.698;11.946;2023-07-08T00:34:44;23.20;50.10
13440;DHT22;6792;57.698;11.946;2023-07-08T00:37:14;23.20;50.20
13440;DHT22;6792;57.698;11.946;2023-07-08T00:39:43;23.10;50.30
13440;DHT22;6792;57.698;11.946;2023-07-08T00:42:16;23.10;50.20
13440;DHT22;6792;57.698;11.946;2023-07-08T00:44:45;23.10;50.30
13440;DHT22;6792;57.698;11.946;2023-07-08T00:47:15;23.10;50.40
13440;DHT22;6792;57.698;11.946;2023-07-08T00:49:47;23.10;50.40
13440;DHT22;6792;57.698;11.946;2023-07-08T00:52:23;23.10;50.50
13440;DHT22;6792;57.698;11.946;2023-07-08T00:54:54;23.00;50.00
13440;DHT22;6792;57.698;11.946;2023-07-08T00:57:25;23.00;50.70
13440;DHT22;6792;57.698;11.946;2023-07-08T00:59:58;23.00;50.80
13440;DHT22;6792;57.698;11.946;2023-07-08T01:02:30;23.00;50.80
13440;DHT22;6792;57.698;11.946;2023-07-08T01:05:05;22.90;50.80
13440;DHT22;6792;57.698;11.946;2023-07-08T01:07:36;22.90;50.80
13440;DHT22;6792;57.698;11.946;2023-07-08T01:10:09;22.90;50.90
13440;DHT22;6792;57.698;11.946;2023-07-08T01:12:43;22.80;50.90
13440;DHT22;6792;57.698;11.946;2023-07-08T01:15:12;22.80;50.90
13440;DHT22;6792;57.698;11.946;2023-07-08T01:17:44;22.80;51.00
13440;DHT22;6792;57.698;11.946;2023-07-08T01:20:14;22.80;51.10
13440;DHT22;6792;57.698;11.946;2023-07-08T01:22:44;22.70;51.10
13440;DHT22;6792;57.698;11.946;2023-07-08T01:25:16;22.70;51.10
13440;DHT22;6792;57.698;11.946;2023-07-08T01:27:49;22.70;51.10
13440;DHT22;6792;57.698;11.946;2023-07-08T01:30:18;22.70;51.20
13440;DHT22;6792;57.698;11.946;2023-07-08T01:32:49;22.70;51.10
13440;DHT22;6792;57.698;11.946;2023-07-08T01:35:19;22.70;51.10
13440;DHT22;6792;57.698;11.946;2023-07-08T01:37:51;22.70;51.20
13440;DHT22;6792;57.698;11.946;2023-07-08T01:40:27;22.70;51.20
13440;DHT22;6792;57.698;11.946;2023-07-08T01:42:57;22.60;51.20
13440;DHT22;6792;57.698;11.946;2023-07-08T01:45:28;22.60;50.70
13440;DHT22;6792;57.698;11.946;2023-07-08T01:48:02;22.60;50.70
13440;DHT22;6792;57.698;11.946;2023-07-08T01:50:33;22.60;50.80
13440;DHT22;6792;57.698;11.946;2023-07-08T01:53:06;22.60;50.80
13440;DHT22;6792;57.698;11.946;2023-07-08T01:55:35;22.60;50.80
13440;DHT22;6792;57.698;11.946;2023-07-08T01:58:05;22.60;51.40
13440;DHT22;6792;57.698;11.946;2023-07-08T02:00:34;22.60;51.40
13440;DHT22;6792;57.698;11.946;2023-07-08T02:03:03;22.60;51.30
13440;DHT22;6792;57.698;11.946;2023-07-08T02:05:32;22.60;51.30
13440;DHT22;6792;57.698;11.946;2023-07-08T02:08:02;22.50;51.30
13440;DHT22;6792;57.698;11.946;2023-07-08T02:10:31;22.50;51.30
13440;DHT22;6792;57.698;11.946;2023-07-08T02:13:01;22.50;51.30
13440;DHT22;6792;57.698;11.946;2023-07-08T02:15:30;22.50;50.80
13440;DHT22;6792;57.698;11.946;2023-07-08T02:18:00;22.60;51.40
13440;DHT22;6792;57.698;11.946;2023-07-08T02:20:29;22.50;51.30
13440;DHT22;6792;57.698;11.946;2023-07-08T02:22:58;22.50;51.20
13440;DHT22;6792;57.698;11.946;2023-07-08T02:25:28;22.50;51.30
13440;DHT22;6792;57.698;11.946;2023-07-08T02:27:57;22.50;51.30
13440;DHT22;6792;57.698;11.946;2023-07-08T02:30:26;22.50;51.20
13440;DHT22;6792;57.698;11.946;2023-07-08T02:32:56;22.50;51.30
13440;DHT22;6792;57.698;11.946;2023-07-08T02:35:26;22.50;51.30
13440;DHT22;6792;57.698;11.946;2023-07-08T02:37:56;22.50;51.30
13440;DHT22;6792;57.698;11.946;2023-07-08T02:40:26;22.40;51.30
13440;DHT22;6792;57.698;11.946;2023-07-08T02:42:55;22.40;51.30
13440;DHT22;6792;57.698;11.946;2023-07-08T02:45:24;22.40;51.40
13440;DHT22;6792;57.698;11.946;2023-07-08T02:47:54;22.40;51.40
13440;DHT22;6792;57.698;11.946;2023-07-08T02:50:23;22.40;52.00
13440;DHT22;6792;57.698;11.946;2023-07-08T02:52:52;22.30;51.50
13440;DHT22;6792;57.698;11.946;2023-07-08T02:55:22;22.30;51.50
13440;DHT22;6792;57.698;11.946;2023-07-08T02:57:51;22.30;51.60
13440;DHT22;6792;57.698;11.946;2023-07-08T03:00:20;22.30;51.50
13440;DHT22;6792;57.698;11.946;2023-07-08T03:02:49;22.30;51.60
13440;DHT22;6792;57.698;11.946;2023-07-08T03:05:19;22.30;51.60
13440;DHT22;6792;57.698;11.946;2023-07-08T03:07:48;22.30;51.70
13440;DHT22;6792;57.698;11.946;2023-07-08T03:10:17;22.30;51.70
13440;DHT22;6792;57.698;11.946;2023-07-08T03:12:47;22.30;52.30
13440;DHT22;6792;57.698;11.946;2023-07-08T03:15:16;22.30;51.80
13440;DHT22;6792;57.698;11.946;2023-07-08T03:17:45;22.30;51.90
13440;DHT22;6792;57.698;11.946;2023-07-08T03:20:15;22.30;51.70
13440;DHT22;6792;57.698;11.946;2023-07-08T03:22:45;22.40;51.80
13440;DHT22;6792;57.698;11.946;2023-07-08T03:25:15;22.40;51.70
13440;DHT22;6792;57.698;11.946;2023-07-08T03:27:47;22.40;51.70
13440;DHT22;6792;57.698;11.946;2023-07-08T03:30:16;22.40;51.60
13440;DHT22;6792;57.698;11.946;2023-07-08T03:32:46;22.40;51.60
13440;DHT22;6792;57.698;11.946;2023-07-08T03:35:16;22.40;51.60
13440;DHT22;6792;57.698;11.946;2023-07-08T03:37:45;22.40;51.60
13440;DHT22;6792;57.698;11.946;2023-07-08T03:40:14;22.40;51.60
13440;DHT22;6792;57.698;11.946;2023-07-08T03:42:44;22.40;51.60
13440;DHT22;6792;57.698;11.946;2023-07-08T03:45:14;22.40;51.60
13440;DHT22;6792;57.698;11.946;2023-07-08T03:47:43;22.40;51.70
13440;DHT22;6792;57.698;11.946;2023-07-08T03:50:17;22.40;51.70
13440;DHT22;6792;57.698;11.946;2023-07-08T03:52:47;22.40;51.70
13440;DHT22;6792;57.698;11.946;2023-07-08T03:55:16;22.30;51.20
13440;DHT22;6792;57.698;11.946;2023-07-08T03:57:45;22.40;51.80
13440;DHT22;6792;57.698;11.946;2023-07-08T04:00:18;22.40;51.80
13440;DHT22;6792;57.698;11.946;2023-07-08T04:02:47;22.40;51.30
13440;DHT22;6792;57.698;11.946;2023-07-08T04:05:20;22.30;51.30
13440;DHT22;6792;57.698;11.946;2023-07-08T04:07:50;22.30;51.30
13440;DHT22;6792;57.698;11.946;2023-07-08T04:10:19;22.30;51.40
13440;DHT22;6792;57.698;11.946;2023-07-08T04:12:48;22.30;52.00
13440;DHT22;6792;57.698;11.946;2023-07-08T04:15:18;22.30;51.40
13440;DHT22;6792;57.698;11.946;2023-07-08T04:17:48;22.40;52.00
13440;DHT22;6792;57.698;11.946;2023-07-08T04:20:19;22.40;52.00
13440;DHT22;6792;57.698;11.946;2023-07-08T04:22:48;22.40;52.00
13440;DHT22;6792;57.698;11.946;2023-07-08T04:25:19;22.40;52.00
13440;DHT22;6792;57.698;11.946;2023-07-08T04:27:48;22.40;52.00
13440;DHT22;6792;57.698;11.946;2023-07-08T04:30:22;22.40;52.00
13440;DHT22;6792;57.698;11.946;2023-07-08T04:32:53;22.40;52.00
13440;DHT22;6792;57.698;11.946;2023-07-08T04:35:24;22.40;52.00
13440;DHT22;6792;57.698;11.946;2023-07-08T04:37:53;22.40;52.00
13440;DHT22;6792;57.698;11.946;2023-07-08T04:40:22;22.40;52.00
13440;DHT22;6792;57.698;11.946;2023-07-08T04:42:51;22.40;52.10
13440;DHT22;6792;57.698;11.946;2023-07-08T04:45:20;22.40;52.10
13440;DHT22;6792;57.698;11.946;2023-07-08T04:47:50;22.40;52.10
13440;DHT22;6792;57.698;11.946;2023-07-08T04:50:20;22.40;52.20
13440;DHT22;6792;57.698;11.946;2023-07-08T04:52:50;22.40;52.20
13440;DHT22;6792;57.698;11.946;2023-07-08T04:55:19;22.40;52.20
13440;DHT22;6792;57.698;11.946;2023-07-08T04:57:48;22.50;51.80
13440;DHT22;6792;57.698;11.946;2023-07-08T05:00:19;22.50;52.30
13440;DHT22;6792;57.698;11.946;2023-07-08T05:02:48;22.60;52.10
13440;DHT22;6792;57.698;11.946;2023-07-08T05:05:17;22.70;52.00
13440;DHT22;6792;57.698;11.946;2023-07-08T05:07:47;22.70;51.40
13440;DHT22;6792;57.698;11.946;2023-07-08T05:10:17;22.70;51.20
13440;DHT22;6792;57.698;11.946;2023-07-08T05:12:47;22.80;51.70
13440;DHT22;6792;57.698;11.946;2023-07-08T05:15:17;22.90;51.60
13440;DHT22;6792;57.698;11.946;2023-07-08T05:17:47;22.90;51.60
13440;DHT22;6792;57.698;11.946;2023-07-08T05:20:16;22.90;51.50
13440;DHT22;6792;57.698;11.946;2023-07-08T05:22:47;23.00;51.40
13440;DHT22;6792;57.698;11.946;2023-07-08T05:25:19;23.10;51.30
13440;DHT22;6792;57.698;11.946;2023-07-08T05:27:48;23.10;51.20
13440;DHT22;6792;57.698;11.946;2023-07-08T05:30:19;23.10;51.10
13440;DHT22;6792;57.698;11.946;2023-07-08T05:32:48;23.20;51.00
13440;DHT22;6792;57.698;11.946;2023-07-08T05:35:17;23.20;50.90
13440;DHT22;6792;57.698;11.946;2023-07-08T05:37:47;23.30;50.90
13440;DHT22;6792;57.698;11.946;2023-07-08T05:40:16;23.30;50.80
13440;DHT22;6792;57.698;11.946;2023-07-08T05:42:45;23.40;50.70
13440;DHT22;6792;57.698;11.946;2023-07-08T05:45:14;23.50;50.60
13440;DHT22;6792;57.698;11.946;2023-07-08T05:47:43;23.50;49.90
13440;DHT22;6792;57.698;11.946;2023-07-08T05:50:13;23.60;50.40
13440;DHT22;6792;57.698;11.946;2023-07-08T05:52:42;23.60;50.20
13440;DHT22;6792;57.698;11.946;2023-07-08T05:55:11;23.60;50.00
13440;DHT22;6792;57.698;11.946;2023-07-08T05:57:40;23.70;49.40
13440;DHT22;6792;57.698;11.946;2023-07-08T06:00:11;23.70;49.80
13440;DHT22;6792;57.698;11.946;2023-07-08T06:02:41;23.80;49.60
13440;DHT22;6792;57.698;11.946;2023-07-08T06:05:10;23.80;49.50
13440;DHT22;6792;57.698;11.946;2023-07-08T06:07:39;23.80;49.40
13440;DHT22;6792;57.698;11.946;2023-07-08T06:10:09;23.90;49.30
13440;DHT22;6792;57.698;11.946;2023-07-08T06:12:39;23.90;48.60
13440;DHT22;6792;57.698;11.946;2023-07-08T06:15:12;23.90;48.90
13440;DHT22;6792;57.698;11.946;2023-07-08T06:17:41;24.00;48.80
13440;DHT22;6792;57.698;11.946;2023-07-08T06:20:11;24.00;48.70
13440;DHT22;6792;57.698;11.946;2023-07-08T06:22:40;24.00;48.50
13440;DHT22;6792;57.698;11.946;2023-07-08T06:25:10;24.00;48.30
13440;DHT22;6792;57.698;11.946;2023-07-08T06:27:39;24.10;48.20
13440;DHT22;6792;57.698;11.946;2023-07-08T06:30:10;24.10;48.10
13440;DHT22;6792;57.698;11.946;2023-07-08T06:32:39;24.10;48.00
13440;DHT22;6792;57.698;11.946;2023-07-08T06:35:09;24.10;47.90
13440;DHT22;6792;57.698;11.946;2023-07-08T06:37:39;24.10;47.30
13440;DHT22;6792;57.698;11.946;2023-07-08T06:40:10;24.20;47.90
13440;DHT22;6792;57.698;11.946;2023-07-08T06:42:39;24.20;47.70
13440;DHT22;6792;57.698;11.946;2023-07-08T06:45:19;24.30;47.20
13440;DHT22;6792;57.698;11.946;2023-07-08T06:47:49;24.40;47.70
13440;DHT22;6792;57.698;11.946;2023-07-08T06:50:18;24.40;47.50
13440;DHT22;6792;57.698;11.946;2023-07-08T06:52:47;24.40;47.40
13440;DHT22;6792;57.698;11.946;2023-07-08T06:55:17;24.50;47.30
13440;DHT22;6792;57.698;11.946;2023-07-08T06:57:46;24.50;47.20
13440;DHT22;6792;57.698;11.946;2023-07-08T07:00:16;24.50;47.10
13440;DHT22;6792;57.698;11.946;2023-07-08T07:02:45;24.50;46.30
13440;DHT22;6792;57.698;11.946;2023-07-08T07:05:14;24.60;46.20
13440;DHT22;6792;57.698;11.946;2023-07-08T07:07:43;24.60;46.60
13440;DHT22;6792;57.698;11.946;2023-07-08T07:10:13;24.70;46.50
13440;DHT22;6792;57.698;11.946;2023-07-08T07:12:42;24.70;46.30
13440;DHT22;6792;57.698;11.946;2023-07-08T07:15:11;24.70;46.10
13440;DHT22;6792;57.698;11.946;2023-07-08T07:17:40;24.80;45.90
13440;DHT22;6792;57.698;11.946;2023-07-08T07:22:39;24.80;45.10
13440;DHT22;6792;57.698;11.946;2023-07-08T07:25:11;24.80;45.50
13440;DHT22;6792;57.698;11.946;2023-07-08T07:27:41;24.80;45.30
13440;DHT22;6792;57.698;11.946;2023-07-08T07:30:12;24.90;45.30
13440;DHT22;6792;57.698;11.946;2023-07-08T07:32:43;24.90;45.30
13440;DHT22;6792;57.698;11.946;2023-07-08T07:35:13;24.90;44.60
13440;DHT22;6792;57.698;11.946;2023-07-08T07:37:43;24.90;45.10
13440;DHT22;6792;57.698;11.946;2023-07-08T07:40:13;25.00;45.10
13440;DHT22;6792;57.698;11.946;2023-07-08T07:42:44;25.00;45.00
13440;DHT22;6792;57.698;11.946;2023-07-08T07:45:14;25.00;45.00
13440;DHT22;6792;57.698;11.946;2023-07-08T07:47:44;25.00;45.00
13440;DHT22;6792;57.698;11.946;2023-07-08T07:50:13;25.10;45.00
13440;DHT22;6792;57.698;11.946;2023-07-08T07:52:42;25.10;45.00
13440;DHT22;6792;57.698;11.946;2023-07-08T07:55:14;25.10;44.90
13440;DHT22;6792;57.698;11.946;2023-07-08T07:57:43;25.20;44.90
13440;DHT22;6792;57.698;11.946;2023-07-08T08:00:15;25.20;44.80
13440;DHT22;6792;57.698;11.946;2023-07-08T08:02:45;25.20;44.10
13440;DHT22;6792;57.698;11.946;2023-07-08T08:05:14;25.30;44.50
13440;DHT22;6792;57.698;11.946;2023-07-08T08:07:44;25.30;44.30
13440;DHT22;6792;57.698;11.946;2023-07-08T08:10:16;25.40;44.30
13440;DHT22;6792;57.698;11.946;2023-07-08T08:12:45;25.40;44.20
13440;DHT22;6792;57.698;11.946;2023-07-08T08:15:16;25.40;44.00
13440;DHT22;6792;57.698;11.946;2023-07-08T08:17:45;25.50;44.00
13440;DHT22;6792;57.698;11.946;2023-07-08T08:20:17;25.50;44.00
13440;DHT22;6792;57.698;11.946;2023-07-08T08:22:46;25.50;44.10
13440;DHT22;6792;57.698;11.946;2023-07-08T08:25:17;25.60;44.10
13440;DHT22;6792;57.698;11.946;2023-07-08T08:27:46;25.60;43.50
13440;DHT22;6792;57.698;11.946;2023-07-08T08:30:16;25.70;44.20
13440;DHT22;6792;57.698;11.946;2023-07-08T08:32:45;25.70;44.20
13440;DHT22;6792;57.698;11.946;2023-07-08T08:35:14;25.70;44.10
13440;DHT22;6792;57.698;11.946;2023-07-08T08:37:43;25.70;44.00
13440;DHT22;6792;57.698;11.946;2023-07-08T08:40:15;25.80;44.70
13440;DHT22;6792;57.698;11.946;2023-07-08T08:42:50;25.80;44.10
13440;DHT22;6792;57.698;11.946;2023-07-08T08:45:19;25.80;44.10
13440;DHT22;6792;57.698;11.946;2023-07-08T08:50:36;25.80;44.00
13440;DHT22;6792;57.698;11.946;2023-07-08T08:53:09;25.80;43.80
13440;DHT22;6792;57.698;11.946;2023-07-08T08:55:39;25.80;43.70
13440;DHT22;6792;57.698;11.946;2023-07-08T08:58:15;25.90;43.60
13440;DHT22;6792;57.698;11.946;2023-07-08T09:00:51;25.90;43.40
13440;DHT22;6792;57.698;11.946;2023-07-08T09:03:29;25.90;43.20
13440;DHT22;6792;57.698;11.946;2023-07-08T09:05:58;25.90;43.10
13440;DHT22;6792;57.698;11.946;2023-07-08T09:08:30;26.00;43.00
13440;DHT22;6792;57.698;11.946;2023-07-08T09:11:10;26.00;42.30
13440;DHT22;6792;57.698;11.946;2023-07-08T09:13:36;26.00;42.90
13440;DHT22;6792;57.698;11.946;2023-07-08T09:16:10;26.00;42.10
13440;DHT22;6792;57.698;11.946;2023-07-08T09:18:41;26.00;42.60
13440;DHT22;6792;57.698;11.946;2023-07-08T09:21:17;26.10;42.40
13440;DHT22;6792;57.698;11.946;2023-07-08T09:23:49;26.20;41.90
13440;DHT22;6792;57.698;11.946;2023-07-08T09:26:21;26.10;42.40
13440;DHT22;6792;57.698;11.946;2023-07-08T09:28:51;26.10;42.30
13440;DHT22;6792;57.698;11.946;2023-07-08T09:31:24;26.10;41.70
13440;DHT22;6792;57.698;11.946;2023-07-08T09:34:04;26.20;42.30
13440;DHT22;6792;57.698;11.946;2023-07-08T09:36:33;26.20;42.20
13440;DHT22;6792;57.698;11.946;2023-07-08T09:39:03;26.10;42.10
13440;DHT22;6792;57.698;11.946;2023-07-08T09:41:34;26.20;42.10
13440;DHT22;6792;57.698;11.946;2023-07-08T09:44:18;26.20;42.20
13440;DHT22;6792;57.698;11.946;2023-07-08T09:46:50;26.10;41.60
13440;DHT22;6792;57.698;11.946;2023-07-08T09:49:22;26.10;41.80
13440;DHT22;6792;57.698;11.946;2023-07-08T09:51:52;26.10;41.80
13440;DHT22;6792;57.698;11.946;2023-07-08T09:54:24;26.20;42.50
13440;DHT22;6792;57.698;11.946;2023-07-08T09:57:00;26.20;42.50
13440;DHT22;6792;57.698;11.946;2023-07-08T09:59:32;26.20;42.60
13440;DHT22;6792;57.698;11.946;2023-07-08T10:02:15;26.20;42.60
13440;DHT22;6792;57.698;11.946;2023-07-08T10:04:43;26.20;42.60
13440;DHT22;6792;57.698;11.946;2023-07-08T10:07:16;26.20;42.60
13440;DHT22;6792;57.698;11.946;2023-07-08T10:09:47;26.20;42.60
13440;DHT22;6792;57.698;11.946;2023-07-08T10:12:18;26.20;42.70
13440;DHT22;6792;57.698;11.946;2023-07-08T10:14:50;26.20;42.70
13440;DHT22;6792;57.698;11.946;2023-07-08T10:17:22;26.20;42.80
13440;DHT22;6792;57.698;11.946;2023-07-08T10:19:51;26.20;42.80
13440;DHT22;6792;57.698;11.946;2023-07-08T10:22:32;26.20;42.90
13440;DHT22;6792;57.698;11.946;2023-07-08T10:25:20;26.20;43.00
13440;DHT22;6792;57.698;11.946;2023-07-08T10:27:51;26.20;43.10
13440;DHT22;6792;57.698;11.946;2023-07-08T10:30:23;26.20;43.10
13440;DHT22;6792;57.698;11.946;2023-07-08T10:36:05;26.30;43.20
13440;DHT22;6792;57.698;11.946;2023-07-08T10:38:37;26.30;43.20
13440;DHT22;6792;57.698;11.946;2023-07-08T10:41:10;26.30;43.30
13440;DHT22;6792;57.698;11.946;2023-07-08T10:43:46;26.30;43.30
13440;DHT22;6792;57.698;11.946;2023-07-08T10:46:23;26.20;43.30
13440;DHT22;6792;57.698;11.946;2023-07-08T10:49:18;26.30;42.90
13440;DHT22;6792;57.698;11.946;2023-07-08T10:51:50;26.30;42.90
13440;DHT22;6792;57.698;11.946;2023-07-08T10:54:33;26.20;43.00
13440;DHT22;6792;57.698;11.946;2023-07-08T10:57:09;26.30;43.70
13440;DHT22;6792;57.698;11.946;2023-07-08T10:59:44;26.30;43.70
13440;DHT22;6792;57.698;11.946;2023-07-08T11:02:36;26.30;42.90
13440;DHT22;6792;57.698;11.946;2023-07-08T11:05:05;26.30;42.90
13440;DHT22;6792;57.698;11.946;2023-07-08T11:10:07;26.40;42.80
13440;DHT22;6792;57.698;11.946;2023-07-08T11:12:40;26.40;42.80
13440;DHT22;6792;57.698;11.946;2023-07-08T11:17:55;26.50;42.80
13440;DHT22;6792;57.698;11.946;2023-07-08T11:20:28;26.60;43.30
13440;DHT22;6792;57.698;11.946;2023-07-08T11:23:00;26.60;43.20
13440;DHT22;6792;57.698;11.946;2023-07-08T11:25:30;26.60;43.20
13440;DHT22;6792;57.698;11.946;2023-07-08T11:28:02;26.70;42.50
13440;DHT22;6792;57.698;11.946;2023-07-08T11:30:33;26.70;42.90
13440;DHT22;6792;57.698;11.946;2023-07-08T11:33:10;26.80;42.90
13440;DHT22;6792;57.698;11.946;2023-07-08T11:35:40;26.80;42.80
13440;DHT22;6792;57.698;11.946;2023-07-08T11:38:14;26.90;42.70
13440;DHT22;6792;57.698;11.946;2023-07-08T11:40:55;27.00;42.70
13440;DHT22;6792;57.698;11.946;2023-07-08T11:43:27;27.00;42.60
13440;DHT22;6792;57.698;11.946;2023-07-08T11:46:02;27.00;42.60
13440;DHT22;6792;57.698;11.946;2023-07-08T11:48:30;27.10;42.50
13440;DHT22;6792;57.698;11.946;2023-07-08T11:51:04;27.10;42.40
13440;DHT22;6792;57.698;11.946;2023-07-08T11:53:36;27.30;42.30
13440;DHT22;6792;57.698;11.946;2023-07-08T11:56:19;27.30;42.10
13440;DHT22;6792;57.698;11.946;2023-07-08T11:59:05;27.50;41.90
13440;DHT22;6792;57.698;11.946;2023-07-08T12:01:39;27.50;41.10
13440;DHT22;6792;57.698;11.946;2023-07-08T12:04:25;27.60;41.70
13440;DHT22;6792;57.698;11.946;2023-07-08T12:09:57;27.70;41.40
13440;DHT22;6792;57.698;11.946;2023-07-08T12:12:32;27.80;41.30
13440;DHT22;6792;57.698;11.946;2023-07-08T12:15:21;27.90;40.40
13440;DHT22;6792;57.698;11.946;2023-07-08T12:17:52;28.00;40.00
13440;DHT22;6792;57.698;11.946;2023-07-08T12:20:25;28.10;40.70
13440;DHT22;6792;57.698;11.946;2023-07-08T12:22:55;28.20;40.40
13440;DHT22;6792;57.698;11.946;2023-07-08T12:25:28;28.30;40.30
13440;DHT22;6792;57.698;11.946;2023-07-08T12:27:57;28.40;40.10
13440;DHT22;6792;57.698;11.946;2023-07-08T12:30:28;28.50;40.00
13440;DHT22;6792;57.698;11.946;2023-07-08T12:32:59;28.60;39.80
13440;DHT22;6792;57.698;11.946;2023-07-08T12:35:30;28.70;39.70
13440;DHT22;6792;57.698;11.946;2023-07-08T12:38:01;28.90;39.60
13440;DHT22;6792;57.698;11.946;2023-07-08T12:40:31;28.90;39.30
13440;DHT22;6792;57.698;11.946;2023-07-08T12:43:02;29.00;39.10
13440;DHT22;6792;57.698;11.946;2023-07-08T12:45:32;29.10;38.90
13440;DHT22;6792;57.698;11.946;2023-07-08T12:48:01;29.20;38.10
13440;DHT22;6792;57.698;11.946;2023-07-08T12:50:31;29.30;38.50
13440;DHT22;6792;57.698;11.946;2023-07-08T12:53:00;29.40;38.20
13440;DHT22;6792;57.698;11.946;2023-07-08T12:55:34;29.50;38.10
13440;DHT22;6792;57.698;11.946;2023-07-08T12:58:04;29.60;37.50
13440;DHT22;6792;57.698;11.946;2023-07-08T13:00:36;29.70;37.90
13440;DHT22;6792;57.698;11.946;2023-07-08T13:03:08;29.80;37.70
13440;DHT22;6792;57.698;11.946;2023-07-08T13:05:39;30.00;37.60
13440;DHT22;6792;57.698;11.946;2023-07-08T13:08:10;30.10;37.30
13440;DHT22;6792;57.698;11.946;2023-07-08T13:10:40;30.30;37.00
13440;DHT22;6792;57.698;11.946;2023-07-08T13:13:13;30.40;36.80
13440;DHT22;6792;57.698;11.946;2023-07-08T13:15:43;30.50;36.50
13440;DHT22;6792;57.698;11.946;2023-07-08T13:18:16;30.70;36.30
13440;DHT22;6792;57.698;11.946;2023-07-08T13:20:48;30.90;36.20
13440;DHT22;6792;57.698;11.946;2023-07-08T13:23:19;31.10;36.00
13440;DHT22;6792;57.698;11.946;2023-07-08T13:25:50;31.30;35.70
13440;DHT22;6792;57.698;11.946;2023-07-08T13:28:23;31.50;35.60
13440;DHT22;6792;57.698;11.946;2023-07-08T13:30:53;31.70;35.30
13440;DHT22;6792;57.698;11.946;2023-07-08T13:33:23;32.00;35.00
13440;DHT22;6792;57.698;11.946;2023-07-08T13:35:53;32.20;34.80
13440;DHT22;6792;57.698;11.946;2023-07-08T13:38:26;32.50;34.60
13440;DHT22;6792;57.698;11.946;2023-07-08T13:40:59;32.80;34.30
13440;DHT22;6792;57.698;11.946;2023-07-08T13:43:29;33.10;33.60
13440;DHT22;6792;57.698;11.946;2023-07-08T13:45:59;33.70;34.10
13440;DHT22;6792;57.698;11.946;2023-07-08T13:48:33;34.70;33.70
13440;DHT22;6792;57.698;11.946;2023-07-08T13:51:06;35.80;33.00
13440;DHT22;6792;57.698;11.946;2023-07-08T13:53:42;37.10;32.20
13440;DHT22;6792;57.698;11.946;2023-07-08T13:56:15;38.30;30.40
13440;DHT22;6792;57.698;11.946;2023-07-08T13:58:47;39.60;30.40
13440;DHT22;6792;57.698;11.946;2023-07-08T14:01:18;41.00;29.60
13440;DHT22;6792;57.698;11.946;2023-07-08T14:03:48;42.30;28.60
13440;DHT22;6792;57.698;11.946;2023-07-08T14:06:19;43.10;27.60
13440;DHT22;6792;57.698;11.946;2023-07-08T14:08:55;44.00;27.10
13440;DHT22;6792;57.698;11.946;2023-07-08T14:11:19;44.80;26.20
13440;DHT22;6792;57.698;11.946;2023-07-08T14:13:49;45.10;25.10
13440;DHT22;6792;57.698;11.946;2023-07-08T14:16:23;45.30;24.70
13440;DHT22;6792;57.698;11.946;2023-07-08T14:18:55;45.40;23.40
13440;DHT22;6792;57.698;11.946;2023-07-08T14:21:25;45.50;24.10
13440;DHT22;6792;57.698;11.946;2023-07-08T14:23:54;46.00;23.90
13440;DHT22;6792;57.698;11.946;2023-07-08T14:26:23;46.40;23.10
13440;DHT22;6792;57.698;11.946;2023-07-08T14:28:53;46.00;22.60
13440;DHT22;6792;57.698;11.946;2023-07-08T14:31:24;45.10;22.50
13440;DHT22;6792;57.698;11.946;2023-07-08T14:33:57;44.00;22.50
13440;DHT22;6792;57.698;11.946;2023-07-08T14:36:26;42.90;22.70
13440;DHT22;6792;57.698;11.946;2023-07-08T14:38:56;41.90;23.60
13440;DHT22;6792;57.698;11.946;2023-07-08T14:41:26;40.90;23.40
13440;DHT22;6792;57.698;11.946;2023-07-08T14:43:55;40.10;23.70
13440;DHT22;6792;57.698;11.946;2023-07-08T14:46:25;39.40;24.10
13440;DHT22;6792;57.698;11.946;2023-07-08T14:48:54;38.70;24.40
13440;DHT22;6792;57.698;11.946;2023-07-08T14:51:23;38.10;24.70
13440;DHT22;6792;57.698;11.946;2023-07-08T14:53:52;37.50;25.00
13440;DHT22;6792;57.698;11.946;2023-07-08T14:56:22;36.90;25.30
13440;DHT22;6792;57.698;11.946;2023-07-08T14:58:51;36.40;25.50
13440;DHT22;6792;57.698;11.946;2023-07-08T15:01:21;35.90;25.80
13440;DHT22;6792;57.698;11.946;2023-07-08T15:03:52;35.40;25.60
13440;DHT22;6792;57.698;11.946;2023-07-08T15:06:21;35.10;26.40
13440;DHT22;6792;57.698;11.946;2023-07-08T15:08:51;34.60;26.10
13440;DHT22;6792;57.698;11.946;2023-07-08T15:11:21;34.20;26.30
13440;DHT22;6792;57.698;11.946;2023-07-08T15:13:51;33.90;27.00
13440;DHT22;6792;57.698;11.946;2023-07-08T15:16:20;33.60;27.30
13440;DHT22;6792;57.698;11.946;2023-07-08T15:18:50;33.20;27.50
13440;DHT22;6792;57.698;11.946;2023-07-08T15:21:20;32.90;27.70
13440;DHT22;6792;57.698;11.946;2023-07-08T15:23:49;32.60;27.90
13440;DHT22;6792;57.698;11.946;2023-07-08T15:26:19;32.40;28.20
13440;DHT22;6792;57.698;11.946;2023-07-08T15:28:50;32.20;28.40
13440;DHT22;6792;57.698;11.946;2023-07-08T15:31:23;31.90;28.10
13440;DHT22;6792;57.698;11.946;2023-07-08T15:33:52;31.70;28.70
13440;DHT22;6792;57.698;11.946;2023-07-08T15:36:22;31.50;28.90
13440;DHT22;6792;57.698;11.946;2023-07-08T15:38:51;31.30;29.10
13440;DHT22;6792;57.698;11.946;2023-07-08T15:41:22;31.20;29.40
13440;DHT22;6792;57.698;11.946;2023-07-08T15:43:53;31.00;29.10
13440;DHT22;6792;57.698;11.946;2023-07-08T15:46:26;30.80;29.80
13440;DHT22;6792;57.698;11.946;2023-07-08T15:48:56;30.70;29.90
13440;DHT22;6792;57.698;11.946;2023-07-08T15:51:25;30.50;30.00
13440;DHT22;6792;57.698;11.946;2023-07-08T15:53:57;30.40;29.80
13440;DHT22;6792;57.698;11.946;2023-07-08T15:56:26;30.20;30.40
13440;DHT22;6792;57.698;11.946;2023-07-08T15:58:55;30.10;30.00
13440;DHT22;6792;57.698;11.946;2023-07-08T16:01:25;30.00;30.10
13440;DHT22;6792;57.698;11.946;2023-07-08T16:03:55;29.90;30.30
13440;DHT22;6792;57.698;11.946;2023-07-08T16:06:26;29.80;31.10
13440;DHT22;6792;57.698;11.946;2023-07-08T16:08:55;29.80;31.20
13440;DHT22;6792;57.698;11.946;2023-07-08T16:11:27;29.70;31.40